sensor_id;sensor_type;location;lat;lon;timestamp;temperature;humidity
17998;DHT22;9124;48.144;17.098;2022-10-31T00:02:14;11.70;99.90
17998;DHT22;9124;48.144;17.098;2022-10-31T00:05:50;11.80;99.90
17998;DHT22;9124;48.144;17.098;2022-10-31T00:09:27;11.80;99.90
17998;DHT22;9124;48.144;17.098;2022-10-31T00:13:03;11.80;99.90
17998;DHT22;9124;48.144;17.098;2022-10-31T00:16:40;11.80;99.90
17998;DHT22;9124;48.144;17.098;2022-10-31T00:20:18;11.60;99.90
17998;DHT22;9124;48.144;17.098;2022-10-31T00:23:54;11.60;99.90
17998;DHT22;9124;48.144;17.098;2022-10-31T00:27:31;11.50;99.90
17998;DHT22;9124;48.144;17.098;2022-10-31T00:31:09;11.60;99.90
17998;DHT22;9124;48.144;17.098;2022-10-31T00:34:46;11.60;99.90
17998;DHT22;9124;48.144;17.098;2022-10-31T00:38:22;11.50;99.90
17998;DHT22;9124;48.144;17.098;2022-10-31T00:41:59;11.40;99.90
17998;DHT22;9124;48.144;17.098;2022-10-31T00:45:35;11.40;99.90
17998;DHT22;9124;48.144;17.098;2022-10-31T00:49:12;11.40;99.90
17998;DHT22;9124;48.144;17.098;2022-10-31T00:52:48;11.30;99.90
17998;DHT22;9124;48.144;17.098;2022-10-31T00:56:25;11.30;99.90
17998;DHT22;9124;48.144;17.098;2022-10-31T01:00:02;11.30;99.90
17998;DHT22;9124;48.144;17.098;2022-10-31T01:03:39;11.20;99.90
17998;DHT22;9124;48.144;17.098;2022-10-31T01:07:20;11.30;99.90
17998;DHT22;9124;48.144;17.098;2022-10-31T01:11:00;11.30;99.90
17998;DHT22;9124;48.144;17.098;2022-10-31T01:14:37;11.30;99.90
17998;DHT22;9124;48.144;17.098;2022-10-31T01:18:14;11.40;99.90
17998;DHT22;9124;48.144;17.098;2022-10-31T01:21:50;11.40;99.90
17998;DHT22;9124;48.144;17.098;2022-10-31T01:25:30;11.40;99.90
17998;DHT22;9124;48.144;17.098;2022-10-31T01:29:07;11.40;99.90
17998;DHT22;9124;48.144;17.098;2022-10-31T01:32:45;11.30;99.90
17998;DHT22;9124;48.144;17.098;2022-10-31T01:36:28;11.30;99.90
17998;DHT22;9124;48.144;17.098;2022-10-31T01:40:05;11.40;99.90
17998;DHT22;9124;48.144;17.098;2022-10-31T01:43:58;11.40;99.90
17998;DHT22;9124;48.144;17.098;2022-10-31T01:47:43;11.60;99.90
17998;DHT22;9124;48.144;17.098;2022-10-31T01:51:27;11.60;99.90
17998;DHT22;9124;48.144;17.098;2022-10-31T01:55:16;11.50;99.90
17998;DHT22;9124;48.144;17.098;2022-10-31T01:58:55;11.50;99.90
17998;DHT22;9124;48.144;17.098;2022-10-31T02:02:33;11.50;99.90
17998;DHT22;9124;48.144;17.098;2022-10-31T02:06:18;11.40;99.90
17998;DHT22;9124;48.144;17.098;2022-10-31T02:09:57;11.40;99.90
17998;DHT22;9124;48.144;17.098;2022-10-31T02:13:35;11.40;99.90
17998;DHT22;9124;48.144;17.098;2022-10-31T02:17:15;11.40;99.90
17998;DHT22;9124;48.144;17.098;2022-10-31T02:21:03;11.40;99.90
17998;DHT22;9124;48.144;17.098;2022-10-31T02:33:30;11.50;99.90
17998;DHT22;9124;48.144;17.098;2022-10-31T02:41:01;11.60;99.90
17998;DHT22;9124;48.144;17.098;2022-10-31T02:45:00;11.60;99.90
17998;DHT22;9124;48.144;17.098;2022-10-31T02:48:44;11.60;99.90
17998;DHT22;9124;48.144;17.098;2022-10-31T02:52:30;11.60;99.90
17998;DHT22;9124;48.144;17.098;2022-10-31T02:56:15;11.60;99.90
17998;DHT22;9124;48.144;17.098;2022-10-31T03:00:04;11.60;99.90
17998;DHT22;9124;48.144;17.098;2022-10-31T03:17:32;11.70;99.90
17998;DHT22;9124;48.144;17.098;2022-10-31T03:21:38;11.70;99.90
17998;DHT22;9124;48.144;17.098;2022-10-31T03:25:36;11.70;99.90
17998;DHT22;9124;48.144;17.098;2022-10-31T03:29:36;11.60;99.90
17998;DHT22;9124;48.144;17.098;2022-10-31T03:33:36;11.70;99.90
17998;DHT22;9124;48.144;17.098;2022-10-31T03:37:35;11.70;99.90
17998;DHT22;9124;48.144;17.098;2022-10-31T03:41:37;11.80;99.90
17998;DHT22;9124;48.144;17.098;2022-10-31T03:45:40;11.80;99.90
17998;DHT22;9124;48.144;17.098;2022-10-31T03:49:38;11.90;99.90
17998;DHT22;9124;48.144;17.098;2022-10-31T03:58:36;12.00;99.90
17998;DHT22;9124;48.144;17.098;2022-10-31T04:02:39;12.10;99.90
17998;DHT22;9124;48.144;17.098;2022-10-31T04:06:38;12.00;99.90
17998;DHT22;9124;48.144;17.098;2022-10-31T04:10:37;11.90;99.90
17998;DHT22;9124;48.144;17.098;2022-10-31T04:14:37;11.90;99.90
17998;DHT22;9124;48.144;17.098;2022-10-31T04:18:34;12.00;99.90
17998;DHT22;9124;48.144;17.098;2022-10-31T04:22:32;12.00;99.90
17998;DHT22;9124;48.144;17.098;2022-10-31T04:26:29;12.10;99.90
17998;DHT22;9124;48.144;17.098;2022-10-31T04:30:27;12.10;99.90
17998;DHT22;9124;48.144;17.098;2022-10-31T04:34:24;12.10;99.90
17998;DHT22;9124;48.144;17.098;2022-10-31T04:38:20;12.10;99.90
17998;DHT22;9124;48.144;17.098;2022-10-31T04:42:18;12.10;99.90
17998;DHT22;9124;48.144;17.098;2022-10-31T04:46:15;12.00;99.90
17998;DHT22;9124;48.144;17.098;2022-10-31T04:50:11;11.90;99.90
17998;DHT22;9124;48.144;17.098;2022-10-31T04:54:08;11.90;99.90
17998;DHT22;9124;48.144;17.098;2022-10-31T04:58:04;11.80;99.90
17998;DHT22;9124;48.144;17.098;2022-10-31T05:02:02;11.90;99.90
17998;DHT22;9124;48.144;17.098;2022-10-31T05:06:25;12.00;99.90
17998;DHT22;9124;48.144;17.098;2022-10-31T05:10:24;12.00;99.90
17998;DHT22;9124;48.144;17.098;2022-10-31T05:14:21;12.00;99.90
17998;DHT22;9124;48.144;17.098;2022-10-31T05:18:36;11.90;99.90
17998;DHT22;9124;48.144;17.098;2022-10-31T05:22:54;11.90;99.90
17998;DHT22;9124;48.144;17.098;2022-10-31T05:26:51;12.00;99.90
17998;DHT22;9124;48.144;17.098;2022-10-31T05:30:48;12.00;99.90
17998;DHT22;9124;48.144;17.098;2022-10-31T05:34:46;12.00;99.90
17998;DHT22;9124;48.144;17.098;2022-10-31T05:39:18;12.00;99.90
17998;DHT22;9124;48.144;17.098;2022-10-31T05:43:19;12.00;99.90
17998;DHT22;9124;48.144;17.098;2022-10-31T05:47:17;12.00;99.90
17998;DHT22;9124;48.144;17.098;2022-10-31T05:51:39;12.00;99.90
17998;DHT22;9124;48.144;17.098;2022-10-31T05:55:38;11.90;99.90
17998;DHT22;9124;48.144;17.098;2022-10-31T05:59:43;12.00;99.90
17998;DHT22;9124;48.144;17.098;2022-10-31T06:03:39;12.00;99.90
17998;DHT22;9124;48.144;17.098;2022-10-31T06:07:39;12.10;99.90
17998;DHT22;9124;48.144;17.098;2022-10-31T06:11:35;12.00;99.90
17998;DHT22;9124;48.144;17.098;2022-10-31T06:15:32;12.10;99.90
17998;DHT22;9124;48.144;17.098;2022-10-31T06:19:29;12.10;99.90
17998;DHT22;9124;48.144;17.098;2022-10-31T06:23:26;11.90;99.90
17998;DHT22;9124;48.144;17.098;2022-10-31T06:27:37;11.80;99.90
17998;DHT22;9124;48.144;17.098;2022-10-31T06:31:40;11.80;99.90
17998;DHT22;9124;48.144;17.098;2022-10-31T06:35:36;11.90;99.90
17998;DHT22;9124;48.144;17.098;2022-10-31T06:39:34;12.00;99.90
17998;DHT22;9124;48.144;17.098;2022-10-31T06:43:30;12.00;99.90
17998;DHT22;9124;48.144;17.098;2022-10-31T06:47:56;12.00;99.90
17998;DHT22;9124;48.144;17.098;2022-10-31T06:51:56;12.10;99.90
17998;DHT22;9124;48.144;17.098;2022-10-31T06:55:53;12.10;99.90
17998;DHT22;9124;48.144;17.098;2022-10-31T06:59:53;12.20;99.90
17998;DHT22;9124;48.144;17.098;2022-10-31T07:04:10;12.10;99.90
17998;DHT22;9124;48.144;17.098;2022-10-31T07:08:11;12.10;99.90
17998;DHT22;9124;48.144;17.098;2022-10-31T07:12:07;12.00;99.90
17998;DHT22;9124;48.144;17.098;2022-10-31T07:16:08;12.00;99.90
17998;DHT22;9124;48.144;17.098;2022-10-31T07:20:09;12.10;99.90
17998;DHT22;9124;48.144;17.098;2022-10-31T07:24:06;12.00;99.90
17998;DHT22;9124;48.144;17.098;2022-10-31T07:28:12;11.90;99.90
17998;DHT22;9124;48.144;17.098;2022-10-31T07:32:08;12.00;99.90
17998;DHT22;9124;48.144;17.098;2022-10-31T07:36:09;12.00;99.90
17998;DHT22;9124;48.144;17.098;2022-10-31T07:40:11;12.20;99.90
17998;DHT22;9124;48.144;17.098;2022-10-31T07:44:07;12.20;99.90
17998;DHT22;9124;48.144;17.098;2022-10-31T07:48:23;12.10;99.90
17998;DHT22;9124;48.144;17.098;2022-10-31T07:52:38;12.00;99.90
17998;DHT22;9124;48.144;17.098;2022-10-31T07:56:58;12.00;99.90
17998;DHT22;9124;48.144;17.098;2022-10-31T08:00:54;12.00;99.90
17998;DHT22;9124;48.144;17.098;2022-10-31T08:05:00;12.10;99.90
17998;DHT22;9124;48.144;17.098;2022-10-31T08:09:29;12.30;99.90
17998;DHT22;9124;48.144;17.098;2022-10-31T08:13:28;12.50;99.90
17998;DHT22;9124;48.144;17.098;2022-10-31T08:17:25;12.50;99.90
17998;DHT22;9124;48.144;17.098;2022-10-31T08:21:27;12.50;99.90
17998;DHT22;9124;48.144;17.098;2022-10-31T08:25:24;12.50;99.90
17998;DHT22;9124;48.144;17.098;2022-10-31T08:29:21;12.60;99.90
17998;DHT22;9124;48.144;17.098;2022-10-31T08:33:18;12.80;99.90
17998;DHT22;9124;48.144;17.098;2022-10-31T08:37:33;12.80;99.90
17998;DHT22;9124;48.144;17.098;2022-10-31T08:41:30;12.80;99.90
17998;DHT22;9124;48.144;17.098;2022-10-31T08:45:30;12.70;99.90
17998;DHT22;9124;48.144;17.098;2022-10-31T08:49:27;12.70;99.90
17998;DHT22;9124;48.144;17.098;2022-10-31T08:53:22;12.80;99.90
17998;DHT22;9124;48.144;17.098;2022-10-31T08:57:29;12.80;99.90
17998;DHT22;9124;48.144;17.098;2022-10-31T09:01:25;12.80;99.90
17998;DHT22;9124;48.144;17.098;2022-10-31T09:05:20;12.80;99.90
17998;DHT22;9124;48.144;17.098;2022-10-31T09:09:14;12.80;99.90
17998;DHT22;9124;48.144;17.098;2022-10-31T09:13:13;12.90;99.90
17998;DHT22;9124;48.144;17.098;2022-10-31T09:17:49;12.90;99.90
17998;DHT22;9124;48.144;17.098;2022-10-31T09:22:06;12.80;99.90
17998;DHT22;9124;48.144;17.098;2022-10-31T09:26:01;12.80;99.90
17998;DHT22;9124;48.144;17.098;2022-10-31T09:30:04;12.90;99.90
17998;DHT22;9124;48.144;17.098;2022-10-31T09:33:59;13.00;99.90
17998;DHT22;9124;48.144;17.098;2022-10-31T09:38:10;12.90;99.90
17998;DHT22;9124;48.144;17.098;2022-10-31T09:50:45;12.50;99.90
17998;DHT22;9124;48.144;17.098;2022-10-31T09:55:34;12.40;99.90
17998;DHT22;9124;48.144;17.098;2022-10-31T09:59:35;12.50;99.90
17998;DHT22;9124;48.144;17.098;2022-10-31T10:03:38;12.60;99.90
17998;DHT22;9124;48.144;17.098;2022-10-31T10:13:13;12.60;99.90
17998;DHT22;9124;48.144;17.098;2022-10-31T10:17:24;12.70;99.90
17998;DHT22;9124;48.144;17.098;2022-10-31T10:21:29;12.80;99.90
17998;DHT22;9124;48.144;17.098;2022-10-31T10:25:39;12.90;99.90
17998;DHT22;9124;48.144;17.098;2022-10-31T10:29:44;12.90;99.90
17998;DHT22;9124;48.144;17.098;2022-10-31T10:37:51;12.90;99.90
17998;DHT22;9124;48.144;17.098;2022-10-31T10:41:49;12.90;99.90
17998;DHT22;9124;48.144;17.098;2022-10-31T10:50:44;12.90;99.90
17998;DHT22;9124;48.144;17.098;2022-10-31T10:55:01;13.00;99.90
17998;DHT22;9124;48.144;17.098;2022-10-31T10:58:58;13.00;99.90
17998;DHT22;9124;48.144;17.098;2022-10-31T11:02:53;13.10;99.90
17998;DHT22;9124;48.144;17.098;2022-10-31T11:07:08;13.00;99.90
17998;DHT22;9124;48.144;17.098;2022-10-31T11:11:09;13.00;99.90
17998;DHT22;9124;48.144;17.098;2022-10-31T11:15:21;13.10;99.90
17998;DHT22;9124;48.144;17.098;2022-10-31T11:19:22;13.10;99.90
17998;DHT22;9124;48.144;17.098;2022-10-31T11:23:22;12.90;99.90
17998;DHT22;9124;48.144;17.098;2022-10-31T11:27:23;12.80;99.90
17998;DHT22;9124;48.144;17.098;2022-10-31T11:31:19;12.90;99.90
17998;DHT22;9124;48.144;17.098;2022-10-31T11:35:16;13.00;99.90
17998;DHT22;9124;48.144;17.098;2022-10-31T11:39:18;13.10;99.90
17998;DHT22;9124;48.144;17.098;2022-10-31T11:43:16;13.00;99.90
17998;DHT22;9124;48.144;17.098;2022-10-31T11:47:15;12.90;99.90
17998;DHT22;9124;48.144;17.098;2022-10-31T11:51:10;13.00;99.90
17998;DHT22;9124;48.144;17.098;2022-10-31T11:59:37;13.10;99.90
17998;DHT22;9124;48.144;17.098;2022-10-31T12:04:04;13.00;99.90
17998;DHT22;9124;48.144;17.098;2022-10-31T12:07:56;13.00;99.90
17998;DHT22;9124;48.144;17.098;2022-10-31T12:12:08;13.00;99.90
17998;DHT22;9124;48.144;17.098;2022-10-31T12:16:18;13.10;99.90
17998;DHT22;9124;48.144;17.098;2022-10-31T12:42:17;13.00;99.90
17998;DHT22;9124;48.144;17.098;2022-10-31T12:47:05;13.00;99.90
17998;DHT22;9124;48.144;17.098;2022-10-31T12:50:39;13.10;99.90
17998;DHT22;9124;48.144;17.098;2022-10-31T12:59:31;13.00;99.90
17998;DHT22;9124;48.144;17.098;2022-10-31T13:03:39;12.90;99.90
17998;DHT22;9124;48.144;17.098;2022-10-31T13:08:03;13.00;99.90
17998;DHT22;9124;48.144;17.098;2022-10-31T13:12:07;12.90;99.90
17998;DHT22;9124;48.144;17.098;2022-10-31T13:16:16;12.80;99.90
17998;DHT22;9124;48.144;17.098;2022-10-31T13:24:28;12.90;99.90
17998;DHT22;9124;48.144;17.098;2022-10-31T13:28:48;12.80;99.90
17998;DHT22;9124;48.144;17.098;2022-10-31T13:45:31;12.60;99.90
17998;DHT22;9124;48.144;17.098;2022-10-31T13:53:38;12.70;99.90
17998;DHT22;9124;48.144;17.098;2022-10-31T13:57:44;12.60;99.90
17998;DHT22;9124;48.144;17.098;2022-10-31T14:01:56;12.70;99.90
17998;DHT22;9124;48.144;17.098;2022-10-31T14:06:11;12.60;99.90
17998;DHT22;9124;48.144;17.098;2022-10-31T14:10:21;12.60;99.90
17998;DHT22;9124;48.144;17.098;2022-10-31T14:14:18;12.50;99.90
17998;DHT22;9124;48.144;17.098;2022-10-31T14:18:29;12.40;99.90
17998;DHT22;9124;48.144;17.098;2022-10-31T14:22:30;12.30;99.90
17998;DHT22;9124;48.144;17.098;2022-10-31T14:30:24;12.20;99.90
17998;DHT22;9124;48.144;17.098;2022-10-31T14:51:38;12.20;99.90
17998;DHT22;9124;48.144;17.098;2022-10-31T14:55:45;12.20;99.90
17998;DHT22;9124;48.144;17.098;2022-10-31T14:59:47;12.20;99.90
17998;DHT22;9124;48.144;17.098;2022-10-31T15:03:45;12.20;99.90
17998;DHT22;9124;48.144;17.098;2022-10-31T15:07:54;12.20;99.90
17998;DHT22;9124;48.144;17.098;2022-10-31T15:11:50;11.90;99.90
17998;DHT22;9124;48.144;17.098;2022-10-31T15:15:46;11.90;99.90
17998;DHT22;9124;48.144;17.098;2022-10-31T15:19:42;11.80;99.90
17998;DHT22;9124;48.144;17.098;2022-10-31T15:23:38;11.80;99.90
17998;DHT22;9124;48.144;17.098;2022-10-31T15:27:33;11.80;99.90
17998;DHT22;9124;48.144;17.098;2022-10-31T15:31:28;11.80;99.90
17998;DHT22;9124;48.144;17.098;2022-10-31T15:35:28;11.80;99.90
17998;DHT22;9124;48.144;17.098;2022-10-31T15:39:24;11.90;99.90
17998;DHT22;9124;48.144;17.098;2022-10-31T15:43:18;11.80;99.90
17998;DHT22;9124;48.144;17.098;2022-10-31T15:47:17;11.80;99.90
17998;DHT22;9124;48.144;17.098;2022-10-31T15:51:13;11.80;99.90
17998;DHT22;9124;48.144;17.098;2022-10-31T15:59:00;11.80;99.90
17998;DHT22;9124;48.144;17.098;2022-10-31T16:02:37;11.70;99.90
17998;DHT22;9124;48.144;17.098;2022-10-31T16:06:21;11.80;99.90
17998;DHT22;9124;48.144;17.098;2022-10-31T16:09:59;11.90;99.90
17998;DHT22;9124;48.144;17.098;2022-10-31T16:13:58;11.80;99.90
17998;DHT22;9124;48.144;17.098;2022-10-31T16:17:41;11.90;99.90
17998;DHT22;9124;48.144;17.098;2022-10-31T16:21:33;11.80;99.90
17998;DHT22;9124;48.144;17.098;2022-10-31T16:25:29;11.60;99.90
17998;DHT22;9124;48.144;17.098;2022-10-31T16:29:25;11.60;99.90
17998;DHT22;9124;48.144;17.098;2022-10-31T16:33:02;11.70;99.90
17998;DHT22;9124;48.144;17.098;2022-10-31T16:36:38;11.70;99.90
17998;DHT22;9124;48.144;17.098;2022-10-31T16:40:16;11.70;99.90
17998;DHT22;9124;48.144;17.098;2022-10-31T16:43:54;11.80;99.90
17998;DHT22;9124;48.144;17.098;2022-10-31T16:47:30;11.80;99.90
17998;DHT22;9124;48.144;17.098;2022-10-31T16:51:08;11.70;99.90
17998;DHT22;9124;48.144;17.098;2022-10-31T16:54:44;11.70;99.90
17998;DHT22;9124;48.144;17.098;2022-10-31T16:58:32;11.70;99.90
17998;DHT22;9124;48.144;17.098;2022-10-31T17:02:15;11.60;99.90
17998;DHT22;9124;48.144;17.098;2022-10-31T17:05:52;11.50;99.90
17998;DHT22;9124;48.144;17.098;2022-10-31T17:09:31;11.50;99.90
17998;DHT22;9124;48.144;17.098;2022-10-31T17:13:13;11.50;99.90
17998;DHT22;9124;48.144;17.098;2022-10-31T17:16:51;11.60;99.90
17998;DHT22;9124;48.144;17.098;2022-10-31T17:20:30;11.60;99.90
17998;DHT22;9124;48.144;17.098;2022-10-31T17:24:11;11.60;99.90
17998;DHT22;9124;48.144;17.098;2022-10-31T17:27:49;11.50;99.90
17998;DHT22;9124;48.144;17.098;2022-10-31T17:31:29;11.50;99.90
17998;DHT22;9124;48.144;17.098;2022-10-31T17:35:07;11.50;99.90
17998;DHT22;9124;48.144;17.098;2022-10-31T17:38:44;11.50;99.90
17998;DHT22;9124;48.144;17.098;2022-10-31T17:42:20;11.50;99.90
17998;DHT22;9124;48.144;17.098;2022-10-31T17:45:59;11.50;99.90
17998;DHT22;9124;48.144;17.098;2022-10-31T17:49:36;11.40;99.90
17998;DHT22;9124;48.144;17.098;2022-10-31T17:53:13;11.50;99.90
17998;DHT22;9124;48.144;17.098;2022-10-31T17:56:49;11.50;99.90
17998;DHT22;9124;48.144;17.098;2022-10-31T18:00:26;11.50;99.90
17998;DHT22;9124;48.144;17.098;2022-10-31T18:04:03;11.50;99.90
17998;DHT22;9124;48.144;17.098;2022-10-31T18:07:39;11.50;99.90
17998;DHT22;9124;48.144;17.098;2022-10-31T18:11:18;11.50;99.90
17998;DHT22;9124;48.144;17.098;2022-10-31T18:14:55;11.40;99.90
17998;DHT22;9124;48.144;17.098;2022-10-31T18:18:31;11.40;99.90
17998;DHT22;9124;48.144;17.098;2022-10-31T18:22:08;11.40;99.90
17998;DHT22;9124;48.144;17.098;2022-10-31T18:25:44;11.40;99.90
17998;DHT22;9124;48.144;17.098;2022-10-31T18:29:22;11.50;99.90
17998;DHT22;9124;48.144;17.098;2022-10-31T18:32:59;11.50;99.90
17998;DHT22;9124;48.144;17.098;2022-10-31T18:36:35;11.50;99.90
17998;DHT22;9124;48.144;17.098;2022-10-31T18:40:12;11.60;99.90
17998;DHT22;9124;48.144;17.098;2022-10-31T18:43:49;11.60;99.90
17998;DHT22;9124;48.144;17.098;2022-10-31T18:47:25;11.60;99.90
17998;DHT22;9124;48.144;17.098;2022-10-31T18:51:06;11.70;99.90
17998;DHT22;9124;48.144;17.098;2022-10-31T18:54:43;11.70;99.90
17998;DHT22;9124;48.144;17.098;2022-10-31T18:58:20;11.70;99.90
17998;DHT22;9124;48.144;17.098;2022-10-31T19:01:56;11.70;99.90
17998;DHT22;9124;48.144;17.098;2022-10-31T19:05:33;11.70;99.90
17998;DHT22;9124;48.144;17.098;2022-10-31T19:09:09;11.70;99.90
17998;DHT22;9124;48.144;17.098;2022-10-31T19:12:46;11.70;99.90
17998;DHT22;9124;48.144;17.098;2022-10-31T19:16:22;11.70;99.90
17998;DHT22;9124;48.144;17.098;2022-10-31T19:19:59;11.70;99.90
17998;DHT22;9124;48.144;17.098;2022-10-31T19:23:36;11.60;99.90
17998;DHT22;9124;48.144;17.098;2022-10-31T19:27:13;11.60;99.90
17998;DHT22;9124;48.144;17.098;2022-10-31T19:30:53;11.60;99.90
17998;DHT22;9124;48.144;17.098;2022-10-31T19:34:30;11.50;99.90
17998;DHT22;9124;48.144;17.098;2022-10-31T19:38:07;11.40;99.90
17998;DHT22;9124;48.144;17.098;2022-10-31T19:41:43;11.40;99.90
17998;DHT22;9124;48.144;17.098;2022-10-31T19:45:20;11.40;99.90
17998;DHT22;9124;48.144;17.098;2022-10-31T19:48:56;11.50;99.90
17998;DHT22;9124;48.144;17.098;2022-10-31T19:52:34;11.50;99.90
17998;DHT22;9124;48.144;17.098;2022-10-31T19:56:17;11.50;99.90
17998;DHT22;9124;48.144;17.098;2022-10-31T19:59:54;11.50;99.90
17998;DHT22;9124;48.144;17.098;2022-10-31T20:03:30;11.50;99.90
17998;DHT22;9124;48.144;17.098;2022-10-31T20:07:07;11.60;99.90
17998;DHT22;9124;48.144;17.098;2022-10-31T20:10:58;11.60;99.90
17998;DHT22;9124;48.144;17.098;2022-10-31T20:14:35;11.50;99.90
17998;DHT22;9124;48.144;17.098;2022-10-31T20:18:11;11.50;99.90
17998;DHT22;9124;48.144;17.098;2022-10-31T20:21:48;11.60;99.90
17998;DHT22;9124;48.144;17.098;2022-10-31T20:25:24;11.60;99.90
17998;DHT22;9124;48.144;17.098;2022-10-31T20:29:01;11.50;99.90
17998;DHT22;9124;48.144;17.098;2022-10-31T20:32:38;11.50;99.90
17998;DHT22;9124;48.144;17.098;2022-10-31T20:36:15;11.50;99.90
17998;DHT22;9124;48.144;17.098;2022-10-31T20:39:56;11.60;99.90
17998;DHT22;9124;48.144;17.098;2022-10-31T20:43:33;11.60;99.90
17998;DHT22;9124;48.144;17.098;2022-10-31T20:47:09;11.60;99.90
17998;DHT22;9124;48.144;17.098;2022-10-31T20:50:45;11.60;99.90
17998;DHT22;9124;48.144;17.098;2022-10-31T20:54:22;11.60;99.90
17998;DHT22;9124;48.144;17.098;2022-10-31T20:57:58;11.70;99.90
17998;DHT22;9124;48.144;17.098;2022-10-31T21:01:35;11.60;99.90
17998;DHT22;9124;48.144;17.098;2022-10-31T21:05:12;11.60;99.90
17998;DHT22;9124;48.144;17.098;2022-10-31T21:08:50;11.70;99.90
17998;DHT22;9124;48.144;17.098;2022-10-31T21:12:26;11.70;99.90
17998;DHT22;9124;48.144;17.098;2022-10-31T21:16:09;11.70;99.90
17998;DHT22;9124;48.144;17.098;2022-10-31T21:19:46;11.70;99.90
17998;DHT22;9124;48.144;17.098;2022-10-31T21:23:22;11.70;99.90
17998;DHT22;9124;48.144;17.098;2022-10-31T21:26:59;11.60;99.90
17998;DHT22;9124;48.144;17.098;2022-10-31T21:30:44;11.60;99.90
17998;DHT22;9124;48.144;17.098;2022-10-31T21:34:21;11.60;99.90
17998;DHT22;9124;48.144;17.098;2022-10-31T21:37:57;11.70;99.90
17998;DHT22;9124;48.144;17.098;2022-10-31T21:41:34;11.60;99.90
17998;DHT22;9124;48.144;17.098;2022-10-31T21:45:10;11.60;99.90
17998;DHT22;9124;48.144;17.098;2022-10-31T21:48:47;11.50;99.90
17998;DHT22;9124;48.144;17.098;2022-10-31T21:52:24;11.50;99.90
17998;DHT22;9124;48.144;17.098;2022-10-31T21:56:02;11.50;99.90
17998;DHT22;9124;48.144;17.098;2022-10-31T21:59:39;11.50;99.90
17998;DHT22;9124;48.144;17.098;2022-10-31T22:03:20;11.60;99.90
17998;DHT22;9124;48.144;17.098;2022-10-31T22:06:57;11.60;99.90
17998;DHT22;9124;48.144;17.098;2022-10-31T22:10:33;11.50;99.90
17998;DHT22;9124;48.144;17.098;2022-10-31T22:14:11;11.50;99.90
17998;DHT22;9124;48.144;17.098;2022-10-31T22:17:48;11.50;99.90
17998;DHT22;9124;48.144;17.098;2022-10-31T22:21:26;11.50;99.90
17998;DHT22;9124;48.144;17.098;2022-10-31T22:25:03;11.60;99.90
17998;DHT22;9124;48.144;17.098;2022-10-31T22:28:48;11.60;99.90
17998;DHT22;9124;48.144;17.098;2022-10-31T22:32:24;11.60;99.90
17998;DHT22;9124;48.144;17.098;2022-10-31T22:36:04;11.60;99.90
17998;DHT22;9124;48.144;17.098;2022-10-31T22:39:41;11.60;99.90
17998;DHT22;9124;48.144;17.098;2022-10-31T22:43:17;11.60;99.90
17998;DHT22;9124;48.144;17.098;2022-10-31T22:46:53;11.50;99.90
17998;DHT22;9124;48.144;17.098;2022-10-31T22:50:31;11.50;99.90
17998;DHT22;9124;48.144;17.098;2022-10-31T22:54:12;11.50;99.90
17998;DHT22;9124;48.144;17.098;2022-10-31T22:57:48;11.50;99.90
17998;DHT22;9124;48.144;17.098;2022-10-31T23:01:27;11.50;99.90
17998;DHT22;9124;48.144;17.098;2022-10-31T23:05:04;11.40;99.90
17998;DHT22;9124;48.144;17.098;2022-10-31T23:08:41;11.40;99.90
17998;DHT22;9124;48.144;17.098;2022-10-31T23:12:17;11.40;99.90
17998;DHT22;9124;48.144;17.098;2022-10-31T23:16:13;11.40;99.90
17998;DHT22;9124;48.144;17.098;2022-10-31T23:19:49;11.30;99.90
17998;DHT22;9124;48.144;17.098;2022-10-31T23:23:26;11.30;99.90
17998;DHT22;9124;48.144;17.098;2022-10-31T23:27:05;11.30;99.90
17998;DHT22;9124;48.144;17.098;2022-10-31T23:30:46;11.30;99.90
17998;DHT22;9124;48.144;17.098;2022-10-31T23:34:23;11.30;99.90
17998;DHT22;9124;48.144;17.098;2022-10-31T23:37:59;11.30;99.90
17998;DHT22;9124;48.144;17.098;2022-10-31T23:41:36;11.30;99.90
17998;DHT22;9124;48.144;17.098;2022-10-31T23:45:12;11.30;99.90
17998;DHT22;9124;48.144;17.098;2022-10-31T23:48:49;11.30;99.90
17998;DHT22;9124;48.144;17.098;2022-10-31T23:52:28;11.40;99.90
17998;DHT22;9124;48.144;17.098;2022-10-31T23:56:06;11.30;99.90
17998;DHT22;9124;48.144;17.098;2022-10-31T23:59:42;11.30;99.90
